Time;durP1;ratioP1;P1;durP2;ratioP2;P2;SDS_P1;SDS_P2;PMS_P1;PMS_P2;Temp;Humidity;BMP_temperature;BMP_pressure;BME280_temperature;BME280_humidity;BME280_pressure;Samples;Min_cycle;Max_cycle;Signal;HPM_P1;HPM_P2
2020/12/09 00:01:46;;;;;;;37.65;19.02;;;2.50;99.90;;;;;;5012145;28;20673;-83
2020/12/09 00:04:13;;;;;;;33.05;17.75;;;2.50;99.90;;;;;;5012506;28;20211;-85
2020/12/09 00:06:40;;;;;;;35.95;18.33;;;2.50;99.90;;;;;;5013439;28;20209;-84
2020/12/09 00:09:08;;;;;;;36.75;19.20;;;2.40;99.90;;;;;;5013217;28;20302;-84
2020/12/09 00:11:34;;;;;;;34.45;18.52;;;2.40;99.90;;;;;;5013487;28;20618;-84
2020/12/09 00:14:01;;;;;;;36.72;18.52;;;2.50;99.90;;;;;;5013305;28;20286;-84
2020/12/09 00:16:27;;;;;;;31.52;17.73;;;2.50;99.90;;;;;;5012248;28;20299;-84
2020/12/09 00:18:56;;;;;;;38.53;18.33;;;2.50;99.90;;;;;;5013479;28;20298;-84
2020/12/09 00:21:24;;;;;;;35.78;17.27;;;2.60;99.90;;;;;;5013091;28;20297;-85
2020/12/09 00:23:51;;;;;;;33.03;17.75;;;2.60;99.90;;;;;;5013096;28;20262;-84
2020/12/09 00:26:18;;;;;;;41.58;20.73;;;2.50;99.90;;;;;;5013272;28;20287;-85
2020/12/09 00:28:46;;;;;;;49.58;23.92;;;2.50;99.90;;;;;;5013256;28;20298;-87
2020/12/09 00:31:13;;;;;;;35.60;18.90;;;2.50;99.90;;;;;;5012203;28;20203;-87
2020/12/09 00:33:40;;;;;;;31.05;17.23;;;2.60;99.90;;;;;;5013252;28;20210;-87
2020/12/09 00:36:07;;;;;;;36.33;19.88;;;2.60;99.90;;;;;;5012794;28;20294;-86
2020/12/09 00:38:33;;;;;;;34.10;18.48;;;2.60;99.90;;;;;;5013007;28;20298;-88
2020/12/09 00:41:00;;;;;;;33.83;20.33;;;2.60;99.90;;;;;;5013039;28;20288;-89
2020/12/09 00:43:26;;;;;;;44.97;21.13;;;2.50;99.90;;;;;;5013021;28;20321;-88
2020/12/09 00:45:52;;;;;;;36.65;20.52;;;2.40;99.90;;;;;;5012972;28;20646;-88
2020/12/09 00:48:19;;;;;;;40.20;20.60;;;2.40;99.90;;;;;;5011750;28;20246;-90
2020/12/09 00:50:45;;;;;;;39.25;19.73;;;2.40;99.90;;;;;;5012721;28;20231;-87
2020/12/09 00:53:13;;;;;;;45.17;17.98;;;2.50;99.90;;;;;;5007760;28;20646;-89
2020/12/09 00:55:39;;;;;;;39.60;19.58;;;2.50;99.90;;;;;;5013307;28;20242;-89
2020/12/09 00:58:05;;;;;;;34.35;19.73;;;2.50;99.90;;;;;;5012656;28;20293;-88
2020/12/09 01:00:32;;;;;;;39.85;22.13;;;2.50;99.90;;;;;;5012931;28;20204;-89
2020/12/09 01:02:58;;;;;;;35.92;18.73;;;2.60;99.90;;;;;;5011854;28;20696;-90
2020/12/09 01:05:25;;;;;;;37.78;20.27;;;2.50;99.90;;;;;;5011780;28;20258;-90
2020/12/09 01:07:51;;;;;;;35.30;18.25;;;2.60;99.90;;;;;;5012566;28;20377;-88
2020/12/09 01:10:18;;;;;;;35.15;20.02;;;2.60;99.90;;;;;;5013048;28;20698;-88
2020/12/09 01:12:45;;;;;;;35.97;21.73;;;2.60;99.90;;;;;;5013049;28;20211;-88
2020/12/09 01:15:11;;;;;;;40.40;21.45;;;2.60;99.90;;;;;;5013024;28;20243;-90
2020/12/09 01:17:38;;;;;;;38.25;20.45;;;2.60;99.90;;;;;;5011752;28;20240;-89
2020/12/09 01:20:05;;;;;;;46.20;22.00;;;2.60;99.90;;;;;;5012978;28;20223;-90
2020/12/09 01:22:31;;;;;;;41.47;21.42;;;2.60;99.90;;;;;;5014753;28;20235;-89
2020/12/09 01:24:58;;;;;;;43.00;22.98;;;2.50;99.90;;;;;;5016484;28;20226;-89
2020/12/09 01:27:25;;;;;;;40.58;21.75;;;2.60;99.90;;;;;;5032297;28;20204;-89
2020/12/09 01:29:52;;;;;;;43.75;23.23;;;2.50;99.90;;;;;;5036998;28;20211;-90
2020/12/09 01:32:19;;;;;;;40.55;19.88;;;2.50;99.90;;;;;;5039963;28;20208;-91
2020/12/09 01:34:46;;;;;;;49.95;24.60;;;2.40;99.90;;;;;;5032380;28;20204;-91
2020/12/09 01:37:13;;;;;;;35.50;19.42;;;2.30;99.90;;;;;;5006027;28;20224;-90
2020/12/09 01:39:40;;;;;;;40.90;20.83;;;2.40;99.90;;;;;;4996501;28;20188;-90
2020/12/09 01:42:06;;;;;;;41.25;22.65;;;2.40;99.90;;;;;;4997215;28;20228;-91
2020/12/09 01:44:34;;;;;;;50.17;24.25;;;2.40;99.90;;;;;;5002337;28;20209;-89
2020/12/09 01:47:04;;;;;;;41.65;22.17;;;2.30;99.90;;;;;;4997990;28;20236;-89
2020/12/09 01:49:31;;;;;;;37.08;20.92;;;2.30;99.90;;;;;;4996566;28;20204;-88
2020/12/09 01:51:59;;;;;;;41.60;21.45;;;2.40;99.90;;;;;;4996242;28;20295;-86
2020/12/09 01:54:25;;;;;;;40.78;20.77;;;2.40;99.90;;;;;;4996382;28;20303;-86
2020/12/09 01:57:05;;;;;;;42.63;23.30;;;2.30;99.90;;;;;;4996440;28;20635;-87
2020/12/09 01:59:32;;;;;;;38.65;20.50;;;2.40;99.90;;;;;;4991818;28;20274;-87
2020/12/09 02:01:59;;;;;;;40.42;22.27;;;2.40;99.90;;;;;;4995253;28;20703;-87
2020/12/09 02:04:26;;;;;;;45.65;20.13;;;2.40;99.90;;;;;;4996163;28;20635;-87
2020/12/09 02:06:53;;;;;;;42.75;24.92;;;2.50;99.90;;;;;;5011423;28;20298;-87
2020/12/09 02:09:20;;;;;;;50.92;22.73;;;2.50;99.90;;;;;;5015958;28;20319;-86
2020/12/09 02:11:47;;;;;;;38.40;23.45;;;2.40;99.90;;;;;;5015757;28;20302;-88
2020/12/09 02:14:13;;;;;;;40.85;20.70;;;2.40;99.90;;;;;;5016480;28;20203;-88
2020/12/09 02:16:40;;;;;;;40.88;19.65;;;2.40;99.90;;;;;;5015600;28;20294;-89
2020/12/09 02:19:07;;;;;;;36.47;20.85;;;2.40;99.90;;;;;;5020578;28;20207;-89
2020/12/09 02:21:35;;;;;;;38.28;20.02;;;2.30;99.90;;;;;;5016204;28;20239;-89
2020/12/09 02:24:02;;;;;;;41.28;22.85;;;2.30;99.90;;;;;;5015679;28;20235;-86
2020/12/09 02:26:29;;;;;;;37.25;18.83;;;2.30;99.90;;;;;;5015437;28;20258;-87
2020/12/09 02:28:56;;;;;;;36.58;22.88;;;2.30;99.90;;;;;;5015298;28;20635;-86
2020/12/09 02:31:22;;;;;;;45.45;22.55;;;2.40;99.90;;;;;;5014181;28;20322;-86
2020/12/09 02:33:49;;;;;;;44.40;21.30;;;2.40;99.90;;;;;;5015177;28;20234;-86
2020/12/09 02:36:15;;;;;;;41.92;19.98;;;2.30;99.90;;;;;;5013881;28;20207;-87
2020/12/09 02:38:43;;;;;;;38.85;22.48;;;2.30;99.90;;;;;;5014918;28;20250;-88
2020/12/09 02:41:09;;;;;;;37.95;20.88;;;2.30;99.90;;;;;;5012208;28;20239;-88
2020/12/09 02:43:36;;;;;;;39.15;21.67;;;2.30;99.90;;;;;;5014877;28;20323;-87
2020/12/09 02:46:03;;;;;;;33.60;20.75;;;2.40;99.90;;;;;;5009529;28;20258;-87
2020/12/09 02:48:30;;;;;;;37.28;19.92;;;2.40;99.90;;;;;;5014806;28;20209;-87
2020/12/09 02:50:57;;;;;;;38.00;19.40;;;2.40;99.90;;;;;;5015000;28;20204;-87
2020/12/09 02:53:23;;;;;;;37.03;21.27;;;2.40;99.90;;;;;;5015627;28;20643;-86
2020/12/09 02:55:51;;;;;;;40.13;20.67;;;2.40;99.90;;;;;;5021683;28;20226;-85
2020/12/09 02:58:17;;;;;;;37.92;18.98;;;2.40;99.90;;;;;;5038838;28;20223;-86
2020/12/09 03:00:43;;;;;;;40.78;21.02;;;2.40;99.90;;;;;;5039652;28;20199;-86
2020/12/09 03:03:10;;;;;;;33.53;17.50;;;2.40;99.90;;;;;;5037776;28;20243;-86
2020/12/09 03:05:36;;;;;;;45.95;22.38;;;2.40;99.90;;;;;;5018947;28;20250;-86
2020/12/09 03:08:03;;;;;;;42.72;21.17;;;2.30;99.90;;;;;;5015641;28;20279;-86
2020/12/09 03:10:29;;;;;;;46.00;22.10;;;2.40;99.90;;;;;;5014808;28;20631;-85
2020/12/09 03:12:57;;;;;;;35.00;19.73;;;2.40;99.90;;;;;;5014526;28;20262;-87
2020/12/09 03:15:24;;;;;;;38.50;21.15;;;2.50;99.90;;;;;;5014535;28;20281;-86
2020/12/09 03:17:51;;;;;;;35.33;19.77;;;2.40;99.90;;;;;;5013421;28;20728;-86
2020/12/09 03:20:17;;;;;;;42.45;23.15;;;2.40;99.90;;;;;;5014294;28;20298;-86
2020/12/09 03:22:44;;;;;;;35.28;19.88;;;2.40;99.90;;;;;;5014102;28;20227;-87
2020/12/09 03:25:10;;;;;;;33.25;19.13;;;2.40;99.90;;;;;;5014529;28;20294;-89
2020/12/09 03:27:36;;;;;;;34.40;19.98;;;2.30;99.90;;;;;;5014331;28;20613;-90
2020/12/09 03:30:05;;;;;;;33.72;21.30;;;2.30;99.90;;;;;;5014382;28;20243;-90
2020/12/09 03:32:32;;;;;;;35.30;19.55;;;2.30;99.90;;;;;;5016251;28;20210;-92
2020/12/09 03:34:58;;;;;;;40.05;21.73;;;2.30;99.90;;;;;;5014649;28;20213;-90
2020/12/09 03:37:24;;;;;;;37.60;20.88;;;2.30;99.90;;;;;;5013976;28;20207;-88
2020/12/09 03:39:51;;;;;;;37.95;20.13;;;2.30;99.90;;;;;;5014042;28;20295;-89
2020/12/09 03:42:17;;;;;;;39.50;21.40;;;2.20;99.90;;;;;;5013788;28;20231;-90
2020/12/09 03:44:44;;;;;;;36.58;18.15;;;2.30;99.90;;;;;;5013394;28;20204;-91
2020/12/09 03:47:11;;;;;;;36.30;19.50;;;2.30;99.90;;;;;;5011151;28;20623;-89
2020/12/09 03:49:37;;;;;;;39.15;20.08;;;2.30;99.90;;;;;;5013934;28;20299;-86
2020/12/09 03:52:04;;;;;;;37.97;19.95;;;2.30;99.90;;;;;;5013394;28;20298;-87
2020/12/09 03:54:30;;;;;;;35.63;19.20;;;2.30;99.90;;;;;;5013725;28;20249;-86
2020/12/09 03:56:57;;;;;;;40.53;23.05;;;2.30;99.90;;;;;;5013971;28;20211;-86
2020/12/09 03:59:23;;;;;;;38.40;18.98;;;2.20;99.90;;;;;;5013539;28;20330;-83
2020/12/09 04:01:49;;;;;;;36.55;21.92;;;2.30;99.90;;;;;;5012375;28;20342;-83
2020/12/09 04:04:16;;;;;;;39.05;19.65;;;2.20;99.90;;;;;;5013643;28;20621;-84
2020/12/09 04:06:43;;;;;;;42.50;21.20;;;2.20;99.90;;;;;;5013357;28;20299;-83
2020/12/09 04:09:09;;;;;;;39.35;19.60;;;2.20;99.90;;;;;;5013428;28;20735;-84
2020/12/09 04:11:36;;;;;;;35.55;19.95;;;2.20;99.90;;;;;;5013430;28;20246;-84
2020/12/09 04:14:02;;;;;;;35.95;20.45;;;2.20;99.90;;;;;;5013331;28;20258;-87
2020/12/09 04:16:28;;;;;;;31.33;19.48;;;2.20;99.90;;;;;;5012083;28;20250;-86
2020/12/09 04:18:55;;;;;;;33.72;18.60;;;2.20;99.90;;;;;;5013205;28;20633;-87
2020/12/09 04:21:22;;;;;;;34.30;19.35;;;2.20;99.90;;;;;;5013136;28;20297;-87
2020/12/09 04:23:48;;;;;;;45.53;21.45;;;2.10;99.90;;;;;;5013261;28;20266;-86
2020/12/09 04:26:15;;;;;;;30.92;19.00;;;2.10;99.90;;;;;;5013336;28;20231;-86
2020/12/09 04:28:41;;;;;;;32.47;18.20;;;2.20;99.90;;;;;;5013060;28;20250;-86
2020/12/09 04:31:08;;;;;;;37.05;19.90;;;2.20;99.90;;;;;;5011791;28;20299;-86
2020/12/09 04:33:34;;;;;;;46.42;18.40;;;2.20;99.90;;;;;;5013276;28;20302;-85
2020/12/09 04:36:02;;;;;;;32.10;18.75;;;2.20;99.90;;;;;;5012513;28;20718;-84
2020/12/09 04:38:30;;;;;;;35.97;20.45;;;2.20;99.90;;;;;;5018262;28;20214;-84
2020/12/09 04:40:56;;;;;;;34.65;17.20;;;2.10;99.90;;;;;;5013069;28;20231;-83
2020/12/09 04:43:23;;;;;;;37.40;19.92;;;2.20;99.90;;;;;;5012884;28;20231;-83
2020/12/09 04:45:49;;;;;;;42.90;19.40;;;2.20;99.90;;;;;;5013001;28;20242;-84
2020/12/09 04:48:17;;;;;;;31.73;17.92;;;2.20;99.90;;;;;;5011406;28;20274;-83
2020/12/09 04:51:18;;;;;;;35.78;20.88;;;2.10;99.90;;;;;;5012478;28;20650;-83
2020/12/09 04:53:55;;;;;;;34.60;18.55;;;2.20;99.90;;;;;;5012398;28;20321;-83
2020/12/09 04:56:27;;;;;;;31.50;19.33;;;2.20;99.90;;;;;;5012791;28;20293;-82
2020/12/09 04:58:56;;;;;;;49.55;23.92;;;2.10;99.90;;;;;;5016518;28;20301;-81
2020/12/09 05:01:22;;;;;;;39.50;20.70;;;2.10;99.90;;;;;;5015509;28;20318;-81
2020/12/09 05:03:50;;;;;;;38.58;20.05;;;2.20;99.90;;;;;;5016722;28;20323;-83
2020/12/09 05:06:18;;;;;;;39.60;21.42;;;2.20;99.90;;;;;;5015425;28;20624;-84
2020/12/09 05:08:53;;;;;;;35.35;19.30;;;2.20;99.90;;;;;;5016617;28;20203;-85
2020/12/09 05:11:22;;;;;;;37.85;21.20;;;2.10;99.90;;;;;;5016721;28;20245;-85
2020/12/09 05:13:53;;;;;;;29.45;16.58;;;2.10;99.90;;;;;;5016487;28;20655;-86
2020/12/09 05:16:21;;;;;;;36.00;20.90;;;2.10;99.90;;;;;;5015323;28;20203;-86
2020/12/09 05:18:51;;;;;;;35.58;19.05;;;2.10;99.90;;;;;;5016521;28;20714;-86
2020/12/09 05:21:19;;;;;;;34.00;19.88;;;2.10;99.90;;;;;;5016287;28;20231;-86
2020/12/09 05:23:50;;;;;;;36.35;19.35;;;2.20;99.90;;;;;;5016562;28;20285;-85
2020/12/09 05:26:27;;;;;;;33.00;19.42;;;2.20;99.90;;;;;;5016143;28;20617;-86
2020/12/09 05:29:08;;;;;;;40.42;20.42;;;2.20;99.90;;;;;;5016373;28;20306;-85
2020/12/09 05:31:35;;;;;;;26.85;15.43;;;2.20;99.90;;;;;;5015049;28;20239;-87
2020/12/09 05:34:02;;;;;;;36.70;20.73;;;2.20;99.90;;;;;;5015848;28;20211;-86
2020/12/09 05:36:45;;;;;;;38.45;20.80;;;2.20;99.90;;;;;;5015877;28;20683;-86
2020/12/09 05:39:12;;;;;;;26.17;18.00;;;2.10;99.90;;;;;;5016033;28;20245;-88
2020/12/09 05:41:38;;;;;;;42.80;21.15;;;2.10;99.90;;;;;;5016085;28;20254;-87
2020/12/09 05:44:05;;;;;;;39.97;20.80;;;2.20;99.90;;;;;;5015736;28;20326;-87
2020/12/09 05:46:32;;;;;;;39.13;20.55;;;2.20;99.90;;;;;;5014681;28;20245;-86
2020/12/09 05:48:58;;;;;;;41.58;23.25;;;2.20;99.90;;;;;;5015974;28;20294;-87
2020/12/09 05:51:25;;;;;;;36.72;20.73;;;2.20;99.90;;;;;;5015514;28;20548;-87
2020/12/09 05:53:52;;;;;;;36.55;19.77;;;2.20;99.90;;;;;;5015866;28;20302;-88
2020/12/09 05:56:22;;;;;;;32.83;18.77;;;2.20;99.90;;;;;;5015856;28;20610;-87
2020/12/09 05:58:49;;;;;;;37.38;19.27;;;2.20;99.90;;;;;;5015926;28;20231;-87
2020/12/09 06:01:17;;;;;;;33.05;18.30;;;2.50;99.90;;;;;;5014878;28;20203;-87
2020/12/09 06:03:45;;;;;;;33.95;20.58;;;2.50;99.90;;;;;;5016606;28;20694;-86
2020/12/09 06:06:21;;;;;;;36.75;21.02;;;2.50;99.90;;;;;;5025122;28;20208;-85
2020/12/09 06:08:50;;;;;;;40.10;21.73;;;2.40;99.90;;;;;;5015368;28;20644;-85
2020/12/09 06:11:22;;;;;;;33.78;18.13;;;2.40;99.90;;;;;;5014502;28;20744;-84
2020/12/09 06:13:49;;;;;;;38.35;20.65;;;2.40;99.90;;;;;;5015325;28;20295;-83
2020/12/09 06:16:18;;;;;;;36.50;19.13;;;2.40;99.90;;;;;;5011113;28;20294;-82
2020/12/09 06:18:47;;;;;;;34.33;20.73;;;2.50;99.90;;;;;;5015324;28;20828;-83
2020/12/09 06:21:14;;;;;;;40.20;22.38;;;2.50;99.90;;;;;;5015247;28;20207;-81
2020/12/09 06:23:41;;;;;;;40.25;22.27;;;2.40;99.90;;;;;;5014981;28;20326;-82
2020/12/09 06:26:08;;;;;;;44.53;24.45;;;2.50;99.90;;;;;;5022624;28;20251;-81
2020/12/09 06:28:36;;;;;;;43.53;21.20;;;2.50;99.90;;;;;;5019326;28;20231;-82
2020/12/09 06:31:13;;;;;;;36.10;19.55;;;2.50;99.90;;;;;;5015503;28;20270;-84
2020/12/09 06:33:41;;;;;;;38.22;21.42;;;2.40;99.90;;;;;;5017637;28;20583;-84
2020/12/09 06:36:16;;;;;;;39.38;22.08;;;2.50;99.90;;;;;;5017140;28;20243;-87
2020/12/09 06:39:13;;;;;;;39.22;20.73;;;2.50;99.90;;;;;;5015516;28;20250;-88
2020/12/09 06:41:42;;;;;;;36.00;20.80;;;2.50;99.90;;;;;;5008238;28;20665;-87
2020/12/09 06:44:12;;;;;;;36.28;21.50;;;2.50;99.90;;;;;;4995367;28;20239;-89
2020/12/09 06:46:45;;;;;;;46.50;20.90;;;2.50;99.90;;;;;;4995275;28;20218;-90
2020/12/09 06:49:32;;;;;;;32.65;20.30;;;2.50;99.90;;;;;;4993476;28;20707;-90
2020/12/09 06:52:00;;;;;;;35.50;19.15;;;2.50;99.90;;;;;;4995645;28;20738;-91
2020/12/09 06:54:37;;;;;;;40.38;22.83;;;2.50;99.90;;;;;;4996505;28;20259;-91
2020/12/09 06:57:14;;;;;;;39.72;21.45;;;2.50;99.90;;;;;;4995395;28;20210;-86
2020/12/09 06:59:43;;;;;;;40.20;20.90;;;2.50;99.90;;;;;;4994832;28;20727;-85
2020/12/09 07:02:09;;;;;;;44.97;22.38;;;2.50;99.90;;;;;;4993717;28;20638;-84
2020/12/09 07:05:10;;;;;;;38.90;20.08;;;2.50;99.90;;;;;;4994903;28;20236;-83
2020/12/09 07:07:39;;;;;;;32.25;20.85;;;2.50;99.90;;;;;;4994656;28;20339;-83
2020/12/09 07:10:10;;;;;;;38.65;20.10;;;2.50;99.90;;;;;;4994927;28;20235;-85
2020/12/09 07:12:37;;;;;;;38.55;21.42;;;2.50;99.90;;;;;;5009160;28;20261;-85
2020/12/09 07:15:05;;;;;;;33.00;20.65;;;2.60;99.90;;;;;;5014363;28;20290;-85
2020/12/09 07:17:32;;;;;;;39.78;22.98;;;2.50;99.90;;;;;;5013366;28;20259;-82
2020/12/09 07:19:59;;;;;;;38.65;21.38;;;2.60;99.90;;;;;;5013351;28;20212;-84
2020/12/09 07:22:27;;;;;;;34.42;20.50;;;2.60;99.90;;;;;;5013872;28;20266;-82
2020/12/09 07:24:53;;;;;;;36.55;22.15;;;2.60;99.90;;;;;;5014410;28;20682;-83
2020/12/09 07:27:23;;;;;;;32.40;21.27;;;2.70;99.90;;;;;;5013934;28;20298;-83
2020/12/09 07:29:49;;;;;;;44.70;24.25;;;2.60;99.90;;;;;;5014319;28;20217;-85
2020/12/09 07:32:21;;;;;;;37.95;21.13;;;2.60;99.90;;;;;;5012754;28;20208;-87
2020/12/09 07:34:52;;;;;;;37.25;22.42;;;2.60;99.90;;;;;;5014108;28;20206;-88
2020/12/09 07:37:19;;;;;;;40.80;21.35;;;2.60;99.90;;;;;;5014051;28;20294;-89
2020/12/09 07:39:50;;;;;;;39.08;20.65;;;2.70;99.90;;;;;;5014642;28;20234;-90
2020/12/09 07:48:47;;;;;;;38.25;19.40;;;2.90;99.90;;;;;;5009924;28;20200;-91
2020/12/09 07:51:14;;;;;;;33.38;18.10;;;2.80;99.90;;;;;;5015031;28;20219;-90
2020/12/09 07:53:40;;;;;;;40.97;20.60;;;2.90;99.90;;;;;;5014502;28;20643;-91
2020/12/09 07:56:07;;;;;;;72.63;62.72;;;2.90;99.90;;;;;;5014316;28;20262;-91
2020/12/09 07:58:33;;;;;;;74.57;51.25;;;2.90;99.90;;;;;;5014830;28;20274;-90
2020/12/09 08:01:00;;;;;;;44.70;25.67;;;2.80;99.90;;;;;;5013942;28;20230;-89
2020/12/09 08:03:28;;;;;;;41.97;22.83;;;2.90;99.90;;;;;;5012205;28;20235;-90
2020/12/09 08:05:57;;;;;;;38.78;20.23;;;2.90;99.90;;;;;;5012535;28;20262;-88
2020/12/09 08:08:27;;;;;;;41.17;22.60;;;2.90;99.90;;;;;;5013609;28;20207;-89
2020/12/09 08:10:53;;;;;;;37.95;20.67;;;2.90;99.90;;;;;;5013771;28;20222;-88
2020/12/09 08:13:22;;;;;;;38.03;20.17;;;2.90;99.90;;;;;;5013935;28;20211;-90
2020/12/09 08:15:59;;;;;;;39.47;21.17;;;2.90;99.90;;;;;;5014142;28;20207;-89
2020/12/09 08:18:26;;;;;;;33.97;21.10;;;3.00;99.90;;;;;;5012808;28;20234;-90
2020/12/09 08:20:54;;;;;;;39.45;22.48;;;2.90;99.90;;;;;;5015548;28;20242;-87
2020/12/09 08:23:22;;;;;;;43.00;20.48;;;2.90;99.90;;;;;;5026818;28;20235;-87
2020/12/09 08:25:49;;;;;;;36.15;19.00;;;2.90;99.90;;;;;;5030264;28;20207;-87
2020/12/09 08:28:20;;;;;;;37.03;21.85;;;3.00;99.90;;;;;;5031546;28;20207;-88
2020/12/09 08:30:47;;;;;;;40.00;21.17;;;3.00;99.90;;;;;;5022044;28;20223;-87
2020/12/09 08:33:21;;;;;;;44.17;21.17;;;3.00;99.90;;;;;;5015309;28;20278;-87
2020/12/09 08:35:58;;;;;;;36.20;23.50;;;3.00;99.90;;;;;;5014564;28;20250;-86
2020/12/09 08:38:31;;;;;;;38.53;21.55;;;2.90;99.90;;;;;;5013285;28;20294;-86
2020/12/09 08:40:58;;;;;;;49.10;23.45;;;2.90;99.90;;;;;;5013277;28;20606;-88
2020/12/09 08:43:30;;;;;;;42.72;21.65;;;2.90;99.90;;;;;;5013507;28;20270;-88
2020/12/09 08:45:58;;;;;;;38.00;22.33;;;2.90;99.90;;;;;;5013166;28;20203;-84
2020/12/09 08:48:25;;;;;;;48.75;25.38;;;3.50;99.90;;;;;;5012860;28;20239;-82
2020/12/09 08:50:53;;;;;;;45.03;21.00;;;3.60;99.90;;;;;;5013510;28;20298;-88
2020/12/09 08:53:20;;;;;;;41.10;24.85;;;3.80;99.90;;;;;;5013759;28;20265;-87
2020/12/09 08:55:48;;;;;;;36.80;22.17;;;3.60;99.90;;;;;;5013399;28;20290;-88
2020/12/09 08:58:15;;;;;;;45.42;20.73;;;3.50;99.90;;;;;;5013066;28;20281;-83
2020/12/09 09:00:41;;;;;;;39.28;20.60;;;3.40;99.90;;;;;;5015291;28;20306;-87
2020/12/09 09:03:11;;;;;;;49.20;23.35;;;3.40;99.90;;;;;;5012792;28;20258;-89
2020/12/09 09:05:40;;;;;;;42.33;23.10;;;3.30;99.90;;;;;;5015943;28;20660;-90
2020/12/09 09:08:06;;;;;;;35.85;21.00;;;3.40;99.90;;;;;;5014763;28;20212;-91
2020/12/09 09:10:32;;;;;;;37.13;21.95;;;3.40;99.90;;;;;;5018153;28;20223;-90
2020/12/09 09:13:00;;;;;;;44.03;23.90;;;3.30;99.90;;;;;;5019617;28;20204;-91
2020/12/09 09:15:26;;;;;;;37.63;20.65;;;3.20;99.90;;;;;;5016776;28;20247;-91
2020/12/09 09:17:52;;;;;;;36.75;20.88;;;3.30;99.90;;;;;;5014309;28;20262;-93
2020/12/09 09:20:19;;;;;;;35.40;22.00;;;3.40;99.90;;;;;;5015046;28;20231;-92
2020/12/09 09:22:45;;;;;;;44.17;22.98;;;3.40;99.90;;;;;;5014260;28;20223;-92
2020/12/09 09:25:13;;;;;;;43.75;22.63;;;3.50;99.90;;;;;;5014436;28;20290;-91
2020/12/09 09:27:39;;;;;;;40.63;23.95;;;3.40;99.90;;;;;;5015362;28;20230;-93
2020/12/09 09:30:07;;;;;;;42.88;21.15;;;3.50;99.90;;;;;;5015197;28;20253;-91
2020/12/09 09:32:34;;;;;;;34.63;19.40;;;3.50;99.90;;;;;;5014489;28;20735;-92
2020/12/09 09:35:00;;;;;;;47.55;23.58;;;3.40;99.90;;;;;;5017065;28;20208;-92
2020/12/09 09:37:27;;;;;;;39.08;22.73;;;3.50;99.90;;;;;;5016721;28;20262;-91
2020/12/09 09:39:53;;;;;;;37.45;20.75;;;3.50;99.90;;;;;;5016444;28;20257;-89
2020/12/09 09:42:19;;;;;;;39.70;22.23;;;3.50;99.90;;;;;;5025581;28;20207;-88
2020/12/09 09:44:46;;;;;;;42.13;23.05;;;3.40;99.90;;;;;;5021705;28;20250;-89
2020/12/09 09:47:15;;;;;;;38.05;21.02;;;3.50;99.90;;;;;;5021695;28;20214;-88
2020/12/09 09:49:41;;;;;;;35.60;20.67;;;3.50;99.90;;;;;;5023312;28;20679;-89
2020/12/09 09:52:08;;;;;;;43.20;23.25;;;3.50;99.90;;;;;;5020057;28;20203;-87
2020/12/09 09:54:35;;;;;;;41.15;23.38;;;3.50;99.90;;;;;;5021665;28;20212;-88
2020/12/09 09:57:01;;;;;;;51.33;24.13;;;3.40;99.90;;;;;;5016280;28;20290;-86
2020/12/09 09:59:29;;;;;;;39.15;19.80;;;3.50;99.90;;;;;;5015998;28;20670;-88
2020/12/09 10:01:55;;;;;;;37.45;20.33;;;3.50;99.90;;;;;;4993760;28;20668;-84
2020/12/09 10:04:24;;;;;;;34.17;21.13;;;3.40;99.90;;;;;;4995751;28;20287;-83
2020/12/09 10:06:51;;;;;;;39.03;21.80;;;3.50;99.90;;;;;;4976570;28;20236;-83
2020/12/09 10:09:20;;;;;;;45.85;23.25;;;3.60;99.90;;;;;;4976766;28;20208;-90
2020/12/09 10:11:46;;;;;;;39.13;22.85;;;3.60;99.90;;;;;;4978109;28;20209;-88
2020/12/09 10:14:14;;;;;;;37.78;22.58;;;3.50;99.90;;;;;;4977299;28;20244;-90
2020/12/09 10:16:44;;;;;;;41.10;21.05;;;3.50;99.90;;;;;;4976087;28;20881;-89
2020/12/09 10:19:11;;;;;;;42.97;21.10;;;3.50;99.90;;;;;;4976876;28;20208;-89
2020/12/09 10:21:39;;;;;;;40.20;21.73;;;3.50;99.90;;;;;;4977270;28;20263;-88
2020/12/09 10:24:06;;;;;;;37.83;19.92;;;3.50;99.90;;;;;;4976365;28;20235;-88
2020/12/09 10:26:35;;;;;;;45.17;23.35;;;3.50;99.90;;;;;;4973706;28;20234;-89
2020/12/09 10:29:03;;;;;;;45.70;21.95;;;3.40;99.90;;;;;;4976011;28;20236;-88
2020/12/09 10:31:34;;;;;;;40.63;26.10;;;3.40;99.90;;;;;;4974999;28;20205;-88
2020/12/09 10:34:01;;;;;;;41.72;23.13;;;3.50;99.90;;;;;;4976056;28;20240;-88
2020/12/09 10:36:27;;;;;;;40.97;22.80;;;3.40;99.90;;;;;;5009791;28;20302;-90
2020/12/09 10:38:55;;;;;;;43.03;21.40;;;3.40;99.90;;;;;;5015909;28;20230;-91
2020/12/09 10:41:22;;;;;;;47.38;25.45;;;3.30;99.90;;;;;;5017199;28;20682;-91
2020/12/09 10:43:51;;;;;;;48.03;22.77;;;3.30;99.90;;;;;;5016537;28;20235;-86
2020/12/09 10:46:18;;;;;;;45.05;24.67;;;3.30;99.90;;;;;;5016712;28;20239;-92
2020/12/09 10:48:44;;;;;;;42.67;22.67;;;3.30;99.90;;;;;;5019414;28;20211;-89
2020/12/09 10:51:10;;;;;;;46.17;23.30;;;3.40;99.90;;;;;;5019976;28;20287;-87
2020/12/09 10:53:37;;;;;;;48.47;24.98;;;3.40;99.90;;;;;;5025973;28;20222;-87
2020/12/09 10:56:04;;;;;;;47.25;25.05;;;3.30;99.90;;;;;;5038355;28;20196;-90
2020/12/09 10:58:31;;;;;;;44.60;23.48;;;3.20;99.90;;;;;;5038454;28;20227;-88
2020/12/09 11:00:57;;;;;;;45.00;23.67;;;3.20;99.90;;;;;;5038323;28;20187;-89
2020/12/09 11:03:24;;;;;;;52.33;25.38;;;3.20;99.90;;;;;;5016776;28;20263;-89
2020/12/09 11:05:51;;;;;;;48.80;24.58;;;3.30;99.90;;;;;;5016808;28;20318;-90
2020/12/09 11:08:18;;;;;;;39.47;23.27;;;3.30;99.90;;;;;;5003906;28;20235;-90
2020/12/09 11:10:44;;;;;;;54.45;26.23;;;3.40;99.90;;;;;;4995417;28;20229;-88
2020/12/09 11:13:11;;;;;;;53.00;23.63;;;3.30;99.90;;;;;;4994786;28;20278;-88
2020/12/09 11:15:38;;;;;;;44.33;22.38;;;3.20;99.90;;;;;;5007060;28;20200;-88
2020/12/09 11:18:06;;;;;;;38.47;22.30;;;3.20;99.90;;;;;;5016002;28;20223;-89
2020/12/09 11:20:34;;;;;;;50.05;23.95;;;3.20;99.90;;;;;;5012524;28;20200;-89
2020/12/09 11:23:00;;;;;;;44.25;21.88;;;3.20;99.90;;;;;;4988736;28;20243;-87
2020/12/09 11:25:27;;;;;;;46.20;24.85;;;3.20;99.90;;;;;;4998595;28;20251;-87
2020/12/09 11:27:53;;;;;;;45.40;22.55;;;3.20;99.90;;;;;;4996981;28;20263;-88
2020/12/09 11:33:42;;;;;;;55.70;30.20;;;3.20;99.90;;;;;;4995308;28;20468;-88
2020/12/09 11:36:09;;;;;;;50.40;24.10;;;3.30;99.90;;;;;;4993962;28;20235;-89
2020/12/09 11:38:35;;;;;;;63.85;32.55;;;3.20;99.90;;;;;;5006628;28;20508;-87
2020/12/09 11:41:03;;;;;;;55.70;30.00;;;3.20;99.90;;;;;;5012732;28;20441;-85
2020/12/09 11:43:29;;;;;;;47.25;24.40;;;3.20;99.90;;;;;;5013905;28;20317;-86
2020/12/09 11:45:57;;;;;;;47.78;27.30;;;3.40;99.90;;;;;;5013552;28;20443;-88
2020/12/09 11:48:24;;;;;;;40.80;23.05;;;3.40;99.90;;;;;;5012477;28;20738;-88
2020/12/09 11:50:52;;;;;;;38.58;22.30;;;3.40;99.90;;;;;;5013731;28;20755;-87
2020/12/09 11:53:19;;;;;;;49.38;24.23;;;3.40;99.90;;;;;;5013285;28;20750;-86
2020/12/09 11:55:45;;;;;;;36.47;20.50;;;3.40;99.90;;;;;;5013392;28;20290;-85
2020/12/09 11:58:12;;;;;;;46.30;25.30;;;3.50;99.90;;;;;;5013132;28;20285;-88
2020/12/09 12:00:38;;;;;;;42.28;23.30;;;3.50;99.90;;;;;;5013208;28;20234;-88
2020/12/09 12:03:05;;;;;;;43.60;25.67;;;3.50;99.90;;;;;;5012411;28;20249;-86
2020/12/09 12:05:33;;;;;;;45.92;26.35;;;3.50;99.90;;;;;;5013379;28;20203;-86
2020/12/09 12:08:04;;;;;;;43.70;23.08;;;3.50;99.90;;;;;;5013089;28;20302;-88
2020/12/09 12:10:31;;;;;;;40.90;23.38;;;3.50;99.90;;;;;;5013476;28;20632;-89
2020/12/09 12:12:57;;;;;;;42.83;25.90;;;3.50;99.90;;;;;;5013467;28;20238;-87
2020/12/09 12:15:24;;;;;;;50.67;23.83;;;3.60;99.90;;;;;;5013619;28;20294;-86
2020/12/09 12:17:50;;;;;;;38.67;23.00;;;3.60;99.90;;;;;;5012271;28;20745;-86
2020/12/09 12:20:17;;;;;;;47.45;23.42;;;3.50;99.90;;;;;;5012937;28;20290;-86
2020/12/09 12:22:44;;;;;;;41.40;21.70;;;3.60;99.90;;;;;;5013061;28;20667;-89
2020/12/09 12:25:11;;;;;;;50.58;25.73;;;3.60;99.90;;;;;;5014603;28;20690;-85
2020/12/09 12:27:37;;;;;;;51.00;26.58;;;3.50;99.90;;;;;;5013476;28;20295;-91
2020/12/09 12:30:05;;;;;;;41.50;24.15;;;3.50;99.90;;;;;;5013192;28;20732;-86
2020/12/09 12:32:31;;;;;;;45.33;22.25;;;3.50;99.90;;;;;;5012453;28;20298;-88
2020/12/09 12:34:57;;;;;;;42.70;25.30;;;3.50;99.90;;;;;;4994835;28;20306;-87
2020/12/09 12:37:24;;;;;;;46.28;23.83;;;3.60;99.90;;;;;;4994592;28;20203;-86
2020/12/09 12:39:50;;;;;;;47.03;23.20;;;3.60;99.90;;;;;;4992314;28;20287;-87
2020/12/09 12:42:18;;;;;;;43.38;24.40;;;3.60;99.90;;;;;;4991936;28;20387;-86
2020/12/09 12:44:45;;;;;;;44.88;23.25;;;3.60;99.90;;;;;;4991772;28;20262;-85
2020/12/09 12:47:11;;;;;;;53.33;25.63;;;3.70;99.90;;;;;;4990610;28;20568;-87
2020/12/09 12:49:41;;;;;;;47.65;23.42;;;3.60;99.90;;;;;;4991849;28;20576;-86